Portada
METAR-TAF:

METAR-TAF

Aeroports :

Buffalo Narrows, Manitoba, Canadà

latitud: 55-50N, longitud: 108-27W, altitud: 434 m

Observació

L'informe es va fer fa 44 minuts, a les 01:00 UTC
Vent 3 kt del Sud-Est
Temperatura -4°C
Humitat 93%
Pressió 1006 hPa
Visibilitat: 14.5 km
Núvols disperses a una alçada de 12000 ft
Cel cobert a una alçada de 14000 ft

METAR: CYVT 250100Z AUTO 14003KT 9SM SCT120 OVC140 M04/M05 A2970 RMK SLP087

Hora: 19:44 (01:44 UTC)

Pronòstic

L'informe es va fer fa 1 hora i 6 minuts, a les 00:38 UTC
Pronòstic vàlid del 25 a les 01 UTC al 25 a les 04 UTC
Vent 3 kt amb direcció variable
Visibilitat: 10 km
Cel ennuvolat a una alçada de 12000 ft
Cel cobert a una alçada de 24000 ft

TAF: CYVT 250038Z 2501/2504 VRB03KT P6SM BKN120 OVC240 RMK FCST BASED ON AUTO OBS. NXT FCST WILL BE ISSUED AT 251345Z

Observacions i pronòstics meteorològics de més de 4000 aeroports (METAR i TAF).

Les estacions disponibles són els punts grocs i vermells al mapa.

Posi el ratolí al punt desitjat per veure el nom de l'estació.

Feu clic per veure les observacions i els pronòstics meteorològics.

Per canviar el mapa: feu clic els botons verds amb una creu de color negre per apropar; al botó verd amb un guió per allunyar la imatge; o en les fletxes verdes per a mapes adjacents.


METAR-TAF: